createdAt,value
2023-04-29T00:02:19.191Z,7.08
2023-04-29T00:05:05.683Z,7.02
2023-04-29T00:07:51.043Z,6.89
2023-04-29T00:10:36.683Z,6.79
2023-04-29T00:13:22.533Z,6.76
2023-04-29T00:16:10.408Z,6.69
2023-04-29T00:18:55.776Z,6.66
2023-04-29T00:21:41.537Z,6.61
2023-04-29T00:24:28.049Z,6.67
2023-04-29T00:27:13.810Z,6.74
2023-04-29T00:29:59.524Z,6.75
2023-04-29T00:32:45.622Z,6.70
2023-04-29T00:35:31.281Z,6.61
2023-04-29T00:38:16.562Z,6.52
2023-04-29T00:41:03.249Z,6.38
2023-04-29T00:43:48.861Z,6.34
2023-04-29T00:46:35.054Z,6.30
2023-04-29T00:49:21.575Z,6.32
2023-04-29T00:52:10.290Z,6.25
2023-04-29T00:54:56.816Z,6.29
2023-04-29T00:57:42.711Z,6.25
2023-04-29T01:00:29.088Z,6.29
2023-04-29T01:03:15.136Z,6.31
2023-04-29T01:06:16.865Z,6.26
2023-04-29T01:09:20.505Z,6.17
2023-04-29T01:12:14.005Z,6.06
2023-04-29T01:15:06.599Z,6.04
2023-04-29T01:18:00.446Z,6.08
2023-04-29T01:20:46.953Z,6.22
2023-04-29T01:23:32.489Z,6.26
2023-04-29T01:26:19.160Z,6.20
2023-04-29T01:30:10.815Z,6.19
2023-04-29T01:33:03.526Z,6.21
2023-04-29T01:35:55.642Z,6.15
2023-04-29T01:39:14.891Z,6.25
2023-04-29T01:42:23.201Z,6.14
2023-04-29T01:45:11.344Z,6.07
2023-04-29T01:47:58.155Z,6.02
2023-04-29T01:50:44.619Z,6.08
2023-04-29T01:53:31.973Z,6.16
2023-04-29T01:56:17.462Z,6.14
2023-04-29T01:59:17.828Z,6.04
2023-04-29T02:02:23.693Z,6.11
2023-04-29T02:05:17.336Z,6.16
2023-04-29T02:08:11.337Z,6.13
2023-04-29T02:11:00.644Z,6.14
2023-04-29T02:13:57.507Z,6.18
2023-04-29T02:16:46.073Z,6.18
2023-04-29T02:19:32.421Z,6.18
2023-04-29T02:22:18.341Z,6.20
2023-04-29T02:25:03.906Z,6.24
2023-04-29T02:27:50.472Z,6.18
2023-04-29T02:30:35.740Z,6.17
2023-04-29T02:33:21.529Z,6.17
2023-04-29T02:36:06.992Z,6.10
2023-04-29T02:38:55.382Z,6.01
2023-04-29T02:41:42.255Z,5.89
2023-04-29T02:44:31.549Z,5.87
2023-04-29T02:47:17.473Z,5.93
2023-04-29T02:50:04.868Z,6.05
2023-04-29T02:52:51.898Z,6.12
2023-04-29T02:55:37.600Z,6.04
2023-04-29T02:58:27.260Z,6.00
2023-04-29T03:01:12.861Z,6.07
2023-04-29T03:03:58.501Z,6.30
2023-04-29T03:06:44.465Z,6.48
2023-04-29T03:09:30.868Z,6.56
2023-04-29T03:12:16.928Z,6.51
2023-04-29T03:15:05.710Z,6.58
2023-04-29T03:17:51.430Z,6.67
2023-04-29T03:20:37.065Z,6.70
2023-04-29T03:23:23.862Z,6.74
2023-04-29T03:26:09.220Z,6.80
2023-04-29T03:28:55.852Z,6.92
2023-04-29T03:31:41.917Z,6.94
2023-04-29T03:34:27.761Z,6.99
2023-04-29T03:37:35.583Z,6.97
2023-04-29T03:40:34.955Z,7.15
2023-04-29T03:43:20.438Z,7.35
2023-04-29T03:46:06.176Z,7.47
2023-04-29T03:48:56.046Z,7.49
2023-04-29T03:51:42.319Z,7.61
2023-04-29T03:54:32.957Z,7.74
2023-04-29T03:57:18.780Z,7.76
2023-04-29T04:00:06.097Z,7.84
2023-04-29T04:02:59.430Z,7.88
2023-04-29T04:05:45.890Z,7.91
2023-04-29T04:08:34.271Z,7.94
2023-04-29T04:11:26.641Z,7.96
2023-04-29T04:14:19.052Z,7.99
2023-04-29T04:17:04.959Z,8.05
2023-04-29T04:19:51.163Z,8.06
2023-04-29T04:22:36.774Z,8.10
2023-04-29T04:25:34.363Z,8.15
2023-04-29T04:28:40.359Z,8.23
2023-04-29T04:31:31.334Z,8.31
2023-04-29T04:34:16.562Z,8.44
2023-04-29T04:37:04.129Z,8.55
2023-04-29T04:39:50.717Z,8.63
2023-04-29T04:42:37.140Z,8.68
2023-04-29T04:45:23.125Z,8.69
2023-04-29T04:48:10.038Z,8.68
2023-04-29T04:50:57.824Z,8.73
2023-04-29T04:53:43.340Z,8.74
2023-04-29T04:56:37.906Z,8.73
2023-04-29T04:59:25.015Z,8.73
2023-04-29T05:02:10.770Z,8.72
2023-04-29T05:04:56.700Z,8.69
2023-04-29T05:07:45.458Z,8.71
2023-04-29T05:10:31.718Z,8.77
2023-04-29T05:13:20.561Z,8.85
2023-04-29T05:16:06.720Z,8.92
2023-04-29T05:19:00.405Z,8.97
2023-04-29T05:21:49.968Z,9.01
2023-04-29T05:24:35.189Z,9.04
2023-04-29T05:27:21.222Z,9.12
2023-04-29T05:30:07.412Z,9.22
2023-04-29T05:32:52.781Z,9.31
2023-04-29T05:35:40.192Z,9.44
2023-04-29T05:38:29.124Z,9.57
2023-04-29T05:41:24.216Z,9.72
2023-04-29T05:44:29.828Z,9.85
2023-04-29T05:47:15.340Z,9.98
2023-04-29T05:50:01.675Z,10.05
2023-04-29T05:52:47.303Z,10.10
2023-04-29T05:55:32.791Z,10.11
2023-04-29T05:58:18.632Z,10.09
2023-04-29T06:01:03.898Z,10.10
2023-04-29T06:03:50.585Z,10.11
2023-04-29T06:06:57.915Z,10.11
2023-04-29T06:10:04.429Z,10.13
2023-04-29T06:12:51.909Z,10.18
2023-04-29T06:15:37.713Z,10.20
2023-04-29T06:18:23.587Z,10.22
2023-04-29T06:21:08.828Z,10.25
2023-04-29T06:23:55.349Z,10.29
2023-04-29T06:26:41.073Z,10.35
2023-04-29T06:29:26.361Z,10.39
2023-04-29T06:32:14.023Z,10.46
2023-04-29T06:35:00.025Z,10.52
2023-04-29T06:38:04.618Z,10.61
2023-04-29T06:41:01.963Z,10.66
2023-04-29T06:44:12.164Z,10.74
2023-04-29T06:47:09.808Z,10.83
2023-04-29T06:50:03.223Z,10.89
2023-04-29T06:52:49.397Z,10.97
2023-04-29T06:55:36.298Z,11.01
2023-04-29T06:58:22.231Z,11.07
2023-04-29T07:01:08.660Z,11.15
2023-04-29T07:03:54.264Z,11.24
2023-04-29T07:06:39.853Z,11.33
2023-04-29T07:09:27.644Z,11.40
2023-04-29T07:12:13.308Z,11.51
2023-04-29T07:14:59.890Z,11.60
2023-04-29T07:17:45.466Z,11.71
2023-04-29T07:20:31.134Z,11.84
2023-04-29T07:23:16.834Z,11.94
2023-04-29T07:26:16.385Z,12.05
2023-04-29T07:29:03.712Z,12.12
2023-04-29T07:31:49.140Z,12.16
2023-04-29T07:34:34.544Z,12.20
2023-04-29T07:37:19.792Z,12.23
2023-04-29T07:40:07.561Z,12.23
2023-04-29T07:42:53.150Z,12.26
2023-04-29T07:45:38.621Z,12.31
2023-04-29T07:48:24.275Z,12.33
2023-04-29T07:51:14.571Z,12.34
2023-04-29T07:54:01.155Z,12.39
2023-04-29T07:56:46.870Z,12.43
2023-04-29T07:59:32.858Z,12.53
2023-04-29T08:02:18.439Z,12.60
2023-04-29T08:05:06.239Z,12.68
2023-04-29T08:07:52.283Z,12.77
2023-04-29T08:10:41.029Z,12.84
2023-04-29T08:13:27.651Z,12.97
2023-04-29T08:16:13.683Z,13.06
2023-04-29T08:18:59.336Z,13.16
2023-04-29T08:21:44.753Z,13.22
2023-04-29T08:24:30.461Z,13.34
2023-04-29T08:27:16.076Z,13.48
2023-04-29T08:30:01.604Z,13.61
2023-04-29T08:32:47.005Z,13.74
2023-04-29T08:35:32.337Z,13.84
2023-04-29T08:38:17.625Z,13.93
2023-04-29T08:41:03.071Z,14.02
2023-04-29T08:43:48.554Z,14.10
2023-04-29T08:46:34.283Z,14.16
2023-04-29T08:49:20.028Z,14.15
2023-04-29T08:52:05.357Z,14.14
2023-04-29T08:54:51.437Z,14.19
2023-04-29T08:57:40.726Z,14.24
2023-04-29T09:00:26.498Z,14.29
2023-04-29T09:03:19.721Z,14.33
2023-04-29T09:06:09.886Z,14.38
2023-04-29T09:08:55.612Z,14.53
2023-04-29T09:11:41.445Z,14.58
2023-04-29T09:14:28.539Z,14.68
2023-04-29T09:17:16.365Z,14.82
2023-04-29T09:20:01.704Z,14.81
2023-04-29T09:22:52.049Z,14.90
2023-04-29T09:25:37.856Z,15.05
2023-04-29T09:28:24.255Z,15.35
2023-04-29T09:31:10.972Z,15.54
2023-04-29T09:33:58.796Z,15.64
2023-04-29T09:36:45.907Z,15.72
2023-04-29T09:39:39.881Z,15.89
2023-04-29T09:42:25.436Z,16.01
2023-04-29T09:45:12.069Z,16.12
2023-04-29T09:48:08.851Z,16.36
2023-04-29T09:51:03.452Z,16.51
2023-04-29T09:53:49.245Z,16.70
2023-04-29T09:57:07.824Z,16.81
2023-04-29T09:59:53.470Z,16.89
2023-04-29T10:02:46.882Z,17.08
2023-04-29T10:05:32.508Z,17.06
2023-04-29T10:08:18.704Z,17.04
2023-04-29T10:11:04.775Z,17.13
2023-04-29T10:13:52.313Z,17.26
2023-04-29T10:16:46.715Z,17.46
2023-04-29T10:19:38.877Z,17.67
2023-04-29T10:22:39.707Z,17.65
2023-04-29T10:25:28.001Z,17.43
2023-04-29T10:28:16.840Z,17.12
2023-04-29T10:31:03.646Z,16.90
2023-04-29T10:33:50.513Z,16.75
2023-04-29T10:36:38.049Z,16.65
2023-04-29T10:39:46.591Z,16.66
2023-04-29T10:42:45.215Z,16.72
2023-04-29T10:45:32.873Z,16.77
2023-04-29T10:48:22.029Z,16.76
2023-04-29T10:51:07.476Z,16.64
2023-04-29T10:54:15.273Z,16.57
2023-04-29T10:57:00.712Z,16.55
2023-04-29T10:59:46.312Z,16.49
2023-04-29T11:02:31.671Z,16.39
2023-04-29T11:05:32.164Z,16.33
2023-04-29T11:08:24.139Z,16.27
2023-04-29T11:11:10.438Z,16.12
2023-04-29T11:13:56.220Z,15.98
2023-04-29T11:16:52.636Z,15.88
2023-04-29T11:19:46.717Z,15.88
2023-04-29T11:22:34.000Z,15.98
2023-04-29T11:25:19.689Z,16.05
2023-04-29T11:28:06.173Z,16.07
2023-04-29T11:30:51.737Z,16.13
2023-04-29T11:33:37.348Z,16.15
2023-04-29T11:36:22.686Z,16.04
2023-04-29T11:39:08.476Z,16.05
2023-04-29T11:42:04.503Z,16.15
2023-04-29T11:44:54.670Z,16.26
2023-04-29T11:47:45.709Z,16.38
2023-04-29T11:50:32.870Z,16.34
2023-04-29T11:53:22.237Z,16.42
2023-04-29T11:56:10.497Z,16.61
2023-04-29T11:58:58.098Z,16.79
2023-04-29T12:01:43.500Z,17.13
2023-04-29T12:04:29.286Z,17.37
2023-04-29T12:07:18.254Z,17.83
2023-04-29T12:10:04.001Z,18.15
2023-04-29T12:12:49.880Z,18.49
2023-04-29T12:15:35.768Z,18.54
2023-04-29T12:18:23.494Z,18.26
2023-04-29T12:21:09.233Z,18.02
2023-04-29T12:23:54.964Z,18.18
2023-04-29T12:26:41.417Z,18.25
2023-04-29T12:29:27.101Z,18.02
2023-04-29T12:32:33.409Z,17.77
2023-04-29T12:35:19.022Z,17.77
2023-04-29T12:38:04.404Z,17.75
2023-04-29T12:40:51.109Z,17.57
2023-04-29T12:43:37.400Z,17.60
2023-04-29T12:46:23.858Z,17.77
2023-04-29T12:49:09.754Z,18.10
2023-04-29T12:51:54.986Z,18.33
2023-04-29T12:54:50.803Z,18.42
2023-04-29T12:57:37.932Z,18.36
2023-04-29T13:00:23.506Z,18.08
2023-04-29T13:03:09.636Z,17.90
2023-04-29T13:05:55.440Z,18.01
2023-04-29T13:08:40.814Z,18.25
2023-04-29T13:11:32.010Z,18.39
2023-04-29T13:14:19.449Z,18.59
2023-04-29T13:17:05.049Z,18.89
2023-04-29T13:19:52.097Z,19.11
2023-04-29T13:22:38.172Z,19.32
2023-04-29T13:25:23.988Z,19.46
2023-04-29T13:28:09.235Z,19.68
2023-04-29T13:30:54.694Z,19.83
2023-04-29T13:33:40.279Z,19.76
2023-04-29T13:36:27.645Z,19.80
2023-04-29T13:39:14.465Z,19.88
2023-04-29T13:42:00.522Z,19.94
2023-04-29T13:44:52.673Z,20.15
2023-04-29T13:48:00.330Z,20.15
2023-04-29T13:54:10.653Z,20.53
2023-04-29T14:02:24.795Z,20.42
2023-04-29T14:05:11.785Z,20.64
2023-04-29T14:07:57.019Z,20.93
2023-04-29T14:10:42.703Z,21.24
2023-04-29T14:13:29.367Z,21.40
2023-04-29T14:16:14.811Z,21.39
2023-04-29T14:19:03.634Z,21.38
2023-04-29T14:21:49.260Z,21.31
2023-04-29T14:24:34.881Z,20.78
2023-04-29T14:27:21.736Z,20.45
2023-04-29T14:30:07.751Z,20.08
2023-04-29T14:32:53.328Z,20.10
2023-04-29T14:35:38.606Z,20.34
2023-04-29T14:38:24.075Z,20.63
2023-04-29T14:41:10.008Z,20.66
2023-04-29T14:43:55.770Z,20.52
2023-04-29T14:46:42.256Z,20.76
2023-04-29T14:49:30.265Z,20.65
2023-04-29T14:52:17.134Z,20.21
2023-04-29T14:55:03.079Z,19.74
2023-04-29T14:57:48.820Z,19.31
2023-04-29T15:00:34.430Z,18.89
2023-04-29T15:03:22.782Z,18.50
2023-04-29T15:06:08.826Z,18.12
2023-04-29T15:08:54.359Z,17.87
2023-04-29T15:11:39.744Z,17.63
2023-04-29T15:14:24.961Z,17.40
2023-04-29T15:17:10.452Z,17.17
2023-04-29T15:19:55.917Z,17.00
2023-04-29T15:22:41.676Z,16.91
2023-04-29T15:25:27.728Z,16.87
2023-04-29T15:28:13.219Z,16.85
2023-04-29T15:31:01.650Z,16.95
2023-04-29T15:33:48.420Z,17.15
2023-04-29T15:36:34.635Z,17.69
2023-04-29T15:39:20.194Z,18.12
2023-04-29T15:42:06.110Z,18.27
2023-04-29T15:44:51.458Z,18.28
2023-04-29T15:47:37.057Z,18.46
2023-04-29T15:50:22.360Z,18.80
2023-04-29T15:53:07.743Z,19.20
2023-04-29T15:55:54.666Z,19.67
2023-04-29T15:58:40.048Z,20.03
2023-04-29T16:01:28.277Z,20.44
2023-04-29T16:04:13.505Z,20.55
2023-04-29T16:06:59.150Z,20.46
2023-04-29T16:09:44.756Z,20.43
2023-04-29T16:12:30.442Z,20.77
2023-04-29T16:15:16.020Z,21.17
2023-04-29T16:18:01.928Z,21.30
2023-04-29T16:20:47.409Z,21.18
2023-04-29T16:23:32.938Z,20.65
2023-04-29T16:26:19.073Z,20.48
2023-04-29T16:29:05.061Z,20.68
2023-04-29T16:31:50.709Z,20.97
2023-04-29T16:34:37.234Z,21.02
2023-04-29T16:37:22.870Z,20.67
2023-04-29T16:40:09.052Z,20.17
2023-04-29T16:42:56.899Z,19.72
2023-04-29T16:45:43.391Z,19.08
2023-04-29T16:48:29.645Z,18.53
2023-04-29T16:51:15.172Z,18.13
2023-04-29T16:54:00.526Z,17.84
2023-04-29T16:56:46.297Z,17.52
2023-04-29T16:59:33.640Z,17.29
2023-04-29T17:02:19.179Z,17.14
2023-04-29T17:05:05.041Z,17.00
2023-04-29T17:07:50.790Z,16.84
2023-04-29T17:10:36.368Z,16.76
2023-04-29T17:13:22.024Z,16.71
2023-04-29T17:16:08.077Z,16.60
2023-04-29T17:18:53.490Z,16.44
2023-04-29T17:21:39.030Z,16.28
2023-04-29T17:24:25.608Z,16.13
2023-04-29T17:27:12.981Z,15.88
2023-04-29T17:29:58.457Z,15.31
2023-04-29T17:32:44.577Z,14.74
2023-04-29T17:35:34.973Z,14.48
2023-04-29T17:38:20.556Z,14.35
2023-04-29T17:41:06.066Z,14.29
2023-04-29T17:43:54.353Z,14.20
2023-04-29T17:46:40.726Z,14.16
2023-04-29T17:49:26.327Z,14.16
2023-04-29T17:52:12.767Z,14.12
2023-04-29T17:54:58.208Z,14.19
2023-04-29T17:57:43.725Z,14.23
2023-04-29T18:00:29.253Z,14.26
2023-04-29T18:03:14.947Z,14.29
2023-04-29T18:06:00.799Z,14.28
2023-04-29T18:08:46.297Z,14.31
2023-04-29T18:11:31.771Z,14.45
2023-04-29T18:14:17.393Z,14.54
2023-04-29T18:17:02.853Z,14.75
2023-04-29T18:19:49.758Z,14.98
2023-04-29T18:22:35.104Z,15.00
2023-04-29T18:25:20.835Z,15.01
2023-04-29T18:28:22.965Z,14.99
2023-04-29T18:31:09.918Z,14.93
2023-04-29T18:33:55.450Z,14.89
2023-04-29T18:36:43.986Z,14.78
2023-04-29T18:39:29.563Z,14.67
2023-04-29T18:42:14.712Z,14.56
2023-04-29T18:45:00.180Z,14.38
2023-04-29T18:47:45.660Z,14.18
2023-04-29T18:50:31.216Z,14.05
2023-04-29T18:53:16.872Z,14.00
2023-04-29T18:56:02.393Z,13.99
2023-04-29T18:58:48.172Z,13.95
2023-04-29T19:01:33.860Z,13.90
2023-04-29T19:04:19.248Z,13.83
2023-04-29T19:07:06.194Z,13.76
2023-04-29T19:09:51.873Z,13.65
2023-04-29T19:12:37.894Z,13.54
2023-04-29T19:15:27.935Z,13.42
2023-04-29T19:18:13.439Z,13.32
2023-04-29T19:20:58.916Z,13.23
2023-04-29T19:23:44.603Z,13.14
2023-04-29T19:26:32.867Z,13.03
2023-04-29T19:29:20.213Z,12.96
2023-04-29T19:32:05.694Z,12.86
2023-04-29T19:34:51.063Z,12.73
2023-04-29T19:37:36.501Z,12.67
2023-04-29T19:40:21.977Z,12.57
2023-04-29T19:43:07.293Z,12.46
2023-04-29T19:45:52.621Z,12.35
2023-04-29T19:48:38.232Z,12.26
2023-04-29T19:51:23.822Z,12.16
2023-04-29T19:54:09.737Z,12.07
2023-04-29T19:56:55.085Z,12.00
2023-04-29T19:59:40.697Z,11.94
2023-04-29T20:02:26.551Z,11.88
2023-04-29T20:05:13.330Z,11.85
2023-04-29T20:07:58.880Z,11.84
2023-04-29T20:10:44.274Z,11.88
2023-04-29T20:13:30.089Z,11.92
2023-04-29T20:16:16.262Z,11.92
2023-04-29T20:19:01.863Z,11.90
2023-04-29T20:21:47.324Z,11.88
2023-04-29T20:24:32.680Z,11.89
2023-04-29T20:27:18.090Z,11.90
2023-04-29T20:30:03.816Z,11.91
2023-04-29T20:32:49.295Z,11.92
2023-04-29T20:35:34.624Z,11.93
2023-04-29T20:38:20.181Z,11.95
2023-04-29T20:41:06.058Z,11.96
2023-04-29T20:43:52.125Z,11.96
2023-04-29T20:46:38.061Z,11.96
2023-04-29T20:49:24.987Z,11.95
2023-04-29T20:52:10.673Z,11.93
2023-04-29T20:54:57.104Z,11.95
2023-04-29T20:57:42.514Z,11.95
2023-04-29T21:00:27.914Z,11.95
2023-04-29T21:03:13.307Z,11.96
2023-04-29T21:05:58.645Z,11.97
2023-04-29T21:08:44.360Z,12.00
2023-04-29T21:11:29.798Z,12.01
2023-04-29T21:14:15.279Z,12.00
2023-04-29T21:17:00.837Z,11.97
2023-04-29T21:19:46.547Z,11.93
2023-04-29T21:22:32.130Z,11.92
2023-04-29T21:25:17.778Z,11.89
2023-04-29T21:28:04.009Z,11.89
2023-04-29T21:30:49.612Z,11.88
2023-04-29T21:33:35.097Z,11.84
2023-04-29T21:36:20.669Z,11.81
2023-04-29T21:39:06.635Z,11.74
2023-04-29T21:41:52.049Z,11.70
2023-04-29T21:44:38.301Z,11.64
2023-04-29T21:47:24.154Z,11.61
2023-04-29T21:50:10.479Z,11.59
2023-04-29T21:52:56.185Z,11.57
2023-04-29T21:55:41.886Z,11.57
2023-04-29T21:58:27.436Z,11.56
2023-04-29T22:01:40.661Z,11.54
2023-04-29T22:04:28.313Z,11.54
2023-04-29T22:07:14.295Z,11.56
2023-04-29T22:09:59.940Z,11.53
2023-04-29T22:12:45.521Z,11.52
2023-04-29T22:15:31.100Z,11.49
2023-04-29T22:18:16.464Z,11.46
2023-04-29T22:21:01.761Z,11.45
2023-04-29T22:23:47.221Z,11.43
2023-04-29T22:26:32.535Z,11.42
2023-04-29T22:29:19.334Z,11.41
2023-04-29T22:32:05.505Z,11.41
2023-04-29T22:34:51.473Z,11.40
2023-04-29T22:37:36.755Z,11.38
2023-04-29T22:40:22.024Z,11.39
2023-04-29T22:43:07.532Z,11.38
2023-04-29T22:45:56.953Z,11.36
2023-04-29T22:48:42.429Z,11.36
2023-04-29T22:51:27.822Z,11.35
2023-04-29T22:54:13.127Z,11.34
2023-04-29T22:56:58.713Z,11.36
2023-04-29T22:59:44.351Z,11.34
2023-04-29T23:02:30.091Z,11.33
2023-04-29T23:05:15.517Z,11.31
2023-04-29T23:08:01.459Z,11.31
2023-04-29T23:10:50.628Z,11.28
2023-04-29T23:13:36.310Z,11.27
2023-04-29T23:16:21.697Z,11.26
2023-04-29T23:19:07.620Z,11.23
2023-04-29T23:21:52.955Z,11.24
2023-04-29T23:24:38.373Z,11.21
2023-04-29T23:27:23.780Z,11.20
2023-04-29T23:30:09.778Z,11.21
2023-04-29T23:32:55.476Z,11.21
2023-04-29T23:35:41.224Z,11.24
2023-04-29T23:38:26.719Z,11.24
2023-04-29T23:41:11.979Z,11.24
2023-04-29T23:44:01.075Z,11.24
2023-04-29T23:46:46.451Z,11.22
2023-04-29T23:49:31.764Z,11.22
2023-04-29T23:52:17.018Z,11.22
2023-04-29T23:55:03.212Z,11.21
2023-04-29T23:57:48.529Z,11.21
